Gibraltar, Gibraltar
Current Conditions -  °F | °C
As of 12:50 PM on Monday 20 Oct 2014 (Local Time) from LXGB Reporting Station
Clear Clear  
Wind Chill: 73°   Ceiling: Unl
Heat Index: 73°   Visibility: 6mi
Dew Point: 61°   Wind: 12mph
Humidity: 65%   Direction: 90°E
Pressure: 30.12"   Gusts: NA
Location:  36.14°N, 5.35°W
Report Text: LXGB 201050Z 09010KT CAVOK 23/16 Q1020 NOSIG
Loading
Personal Weather Stations






























Interactive Weather Map
Tropical Storm Tracking
New forecast layout! Learn more

10-Day Weather Forecast

Advertisements
Track Severe Weather on mobile